Thursday, September 20, 2018, 12:49 PM EDT
Back to Local

KMHT, Manchester Airport

Location: Manchester, NH, United States Lat: 42.933
Local Time: 12:49 PM EDT (16:49 GMT) Lon: -71.433
Time Zone: US/Eastern Elev: 232 ft

Show me the last for .
Show Decoded

2018-09-20 11:53 METAR KMHT 201553Z 02006KT 10SM BKN026 BKN030 18/12 A3026 RMK AO2 SLP260
                 T01780117 =
2018-09-20 11:23 METAR KMHT 201523Z 16003KT 10SM BKN022 BKN028 17/12 A3026 RMK AO2 T01720122 =
2018-09-20 11:00 METAR KMHT 201500Z 09004KT 10SM SCT019 17/12 A3027 RMK AO2 T01720122 =
2018-09-20 10:53 METAR KMHT 201453Z 09005KT 10SM BKN025 BKN100 17/12 A3026 RMK AO2 SLP261
                 T01670122 50015 =
2018-09-20 09:53 METAR KMHT 201353Z 03008KT 10SM BKN017 OVC025 16/12 A3027 RMK AO2 SLP262
                 T01610122 =
2018-09-20 09:14 METAR KMHT 201314Z 03005KT 10SM FEW011 OVC017 16/12 A3026 RMK AO2 T01560117 =
2018-09-20 08:53 METAR KMHT 201253Z 06006KT 10SM OVC012 15/12 A3025 RMK AO2 SLP255 T01500122 =
2018-09-20 07:53 METAR KMHT 201153Z 06005KT 10SM OVC012 14/12 A3022 RMK AO2 SLP246 T01440122
                 10156 20139 53022 =
2018-09-20 06:53 METAR KMHT 201053Z 07006KT 6SM BR BKN007 BKN013 OVC022 14/13 A3018 RMK AO2
                 SLP233 T01440128 =
2018-09-20 06:35 METAR KMHT 201035Z 04004KT 2SM BR BKN007 OVC011 14/13 A3018 RMK AO2 TWR VIS 3
                 CIG 005V009 T01390133 =
2018-09-20 05:53 METAR KMHT 200953Z 02004KT 7SM OVC008 14/13 A3016 RMK AO2 CIG 007V012 SLP226
                 T01440133 =
2018-09-20 05:33 METAR KMHT 200933Z 04006KT 10SM OVC009 14/13 A3016 RMK AO2 CIG 008V012 T01440128
                 =
2018-09-20 04:53 METAR KMHT 200853Z 02005KT 10SM BKN012 OVC016 15/13 A3015 RMK AO2 SLP223
                 T01500128 53007 =
2018-09-20 04:25 METAR KMHT 200825Z 06007KT 10SM BKN014 OVC020 15/13 A3014 RMK AO2 T01500128 =
2018-09-20 03:53 METAR KMHT 200753Z 03004KT 10SM OVC019 15/13 A3014 RMK AO2 SLP219 T01500128 =
2018-09-20 02:53 METAR KMHT 200653Z 04006KT 10SM BKN020 OVC050 16/13 A3013 RMK AO2 SLP215
                 T01560128 =
2018-09-20 01:53 METAR KMHT 200553Z 05005KT 10SM SCT014 BKN021 OVC050 16/13 A3013 RMK AO2 SLP216
                 T01560128 10161 20156 51012 =
2018-09-20 00:53 METAR KMHT 200453Z 03004KT 10SM BKN019 OVC050 16/13 A3012 RMK AO2 SLP212
                 T01610128 402060156 =
2018-09-19 23:53 METAR KMHT 200353Z 01003KT 10SM FEW024 OVC050 16/13 A3012 RMK AO2 SLP211
                 T01560133 =
2018-09-19 22:53 METAR KMHT 200253Z 06003KT 10SM FEW026 OVC050 16/13 A3010 RMK AO2 SLP204
                 T01560133 50013 =
2018-09-19 21:53 METAR KMHT 200153Z 00000KT 10SM FEW010 BKN030 OVC050 16/13 A3010 RMK AO2 SLP205
                 T01610133 =
2018-09-19 20:53 METAR KMHT 200053Z 11003KT 10SM SCT017 BKN032 OVC050 16/13 A3008 RMK AO2 SLP200
                 T01610133 =
2018-09-19 20:13 METAR KMHT 200013Z 09005KT 10SM BKN018 OVC032 16/13 A3007 RMK AO2 T01610133 =
2018-09-19 19:53 METAR KMHT 192353Z 10004KT 10SM FEW012 OVC030 16/14 A3006 RMK AO2 SLP191 60000
                 T01610144 10189 20161 51026 =
2018-09-19 18:53 METAR KMHT 192253Z 11006KT 10SM FEW012 OVC020 17/16 A3004 RMK AO2 RAB10E37
                 SLP182 P0000 T01670156 =
2018-09-19 17:53 METAR KMHT 192153Z 09004KT 10SM BKN018 OVC022 18/14 A3002 RMK AO2 SLP177
                 T01830139 =
2018-09-19 16:53 METAR KMHT 192053Z 13003KT 10SM BKN020 OVC050 18/14 A2998 RMK AO2 SLP164
                 T01830144 53004 =
2018-09-19 15:53 METAR KMHT 191953Z 13005KT 10SM OVC018 18/14 A2997 RMK AO2 SLP160 T01830144 =
2018-09-19 14:53 METAR KMHT 191853Z 06005KT 10SM OVC015 18/14 A2997 RMK AO2 SLP160 T01830144 =
2018-09-19 13:53 METAR KMHT 191753Z 11004KT 10SM OVC015 18/14 A2997 RMK AO2 SLP160 T01780144
                 10183 20161 50002 =
2018-09-19 12:53 METAR KMHT 191653Z 05005KT 10SM OVC017 18/14 A2997 RMK AO2 SLP161 T01780139 =

Support USWX by starting your Amazon purchase here.